sensor_id;sensor_type;location;lat;lon;timestamp;P1;durP1;ratioP1;P2;durP2;ratioP2
40256;SDS011;25977;45.462;9.210;2024-01-27T00:01:31;63.53;;;33.72;;
40256;SDS011;25977;45.462;9.210;2024-01-27T00:03:57;65.78;;;33.92;;
40256;SDS011;25977;45.462;9.210;2024-01-27T00:06:23;72.05;;;34.28;;
40256;SDS011;25977;45.462;9.210;2024-01-27T00:08:49;70.05;;;35.22;;
40256;SDS011;25977;45.462;9.210;2024-01-27T00:11:14;64.55;;;33.08;;
40256;SDS011;25977;45.462;9.210;2024-01-27T00:13:40;64.57;;;33.17;;
40256;SDS011;25977;45.462;9.210;2024-01-27T00:16:06;69.07;;;34.17;;
40256;SDS011;25977;45.462;9.210;2024-01-27T00:18:32;67.40;;;33.03;;
40256;SDS011;25977;45.462;9.210;2024-01-27T00:20:57;64.53;;;33.42;;
40256;SDS011;25977;45.462;9.210;2024-01-27T00:23:23;69.07;;;34.55;;
40256;SDS011;25977;45.462;9.210;2024-01-27T00:25:49;65.28;;;32.80;;
40256;SDS011;25977;45.462;9.210;2024-01-27T00:28:14;63.78;;;32.35;;
40256;SDS011;25977;45.462;9.210;2024-01-27T00:30:40;57.97;;;31.92;;
40256;SDS011;25977;45.462;9.210;2024-01-27T00:33:06;69.47;;;34.58;;
40256;SDS011;25977;45.462;9.210;2024-01-27T00:35:31;66.88;;;32.40;;
40256;SDS011;25977;45.462;9.210;2024-01-27T00:37:57;76.53;;;38.85;;
40256;SDS011;25977;45.462;9.210;2024-01-27T00:40:23;78.00;;;42.55;;
40256;SDS011;25977;45.462;9.210;2024-01-27T00:42:48;80.57;;;44.60;;
40256;SDS011;25977;45.462;9.210;2024-01-27T00:45:14;78.60;;;45.90;;
40256;SDS011;25977;45.462;9.210;2024-01-27T00:47:40;84.88;;;46.22;;
40256;SDS011;25977;45.462;9.210;2024-01-27T00:50:05;77.88;;;42.50;;
40256;SDS011;25977;45.462;9.210;2024-01-27T00:52:33;84.47;;;45.20;;
40256;SDS011;25977;45.462;9.210;2024-01-27T00:54:59;87.85;;;44.47;;
40256;SDS011;25977;45.462;9.210;2024-01-27T00:57:25;83.28;;;45.97;;
40256;SDS011;25977;45.462;9.210;2024-01-27T00:59:51;79.07;;;43.00;;
40256;SDS011;25977;45.462;9.210;2024-01-27T01:02:16;76.85;;;43.25;;
40256;SDS011;25977;45.462;9.210;2024-01-27T01:04:42;82.97;;;43.10;;
40256;SDS011;25977;45.462;9.210;2024-01-27T01:07:08;83.40;;;44.78;;
40256;SDS011;25977;45.462;9.210;2024-01-27T01:09:34;82.40;;;42.28;;
40256;SDS011;25977;45.462;9.210;2024-01-27T01:11:59;89.30;;;46.47;;
40256;SDS011;25977;45.462;9.210;2024-01-27T01:14:25;81.72;;;43.03;;
40256;SDS011;25977;45.462;9.210;2024-01-27T01:16:51;87.20;;;44.47;;
40256;SDS011;25977;45.462;9.210;2024-01-27T01:19:16;81.35;;;42.08;;
40256;SDS011;25977;45.462;9.210;2024-01-27T01:21:42;80.57;;;43.85;;
40256;SDS011;25977;45.462;9.210;2024-01-27T01:24:09;79.35;;;43.92;;
40256;SDS011;25977;45.462;9.210;2024-01-27T01:26:34;80.13;;;42.78;;
40256;SDS011;25977;45.462;9.210;2024-01-27T01:29:00;76.00;;;43.25;;
40256;SDS011;25977;45.462;9.210;2024-01-27T01:31:26;76.15;;;41.50;;
40256;SDS011;25977;45.462;9.210;2024-01-27T01:33:51;75.93;;;40.08;;
40256;SDS011;25977;45.462;9.210;2024-01-27T01:36:17;77.70;;;41.10;;
40256;SDS011;25977;45.462;9.210;2024-01-27T01:38:43;77.53;;;41.08;;
40256;SDS011;25977;45.462;9.210;2024-01-27T01:41:08;76.80;;;39.78;;
40256;SDS011;25977;45.462;9.210;2024-01-27T01:43:34;78.95;;;43.08;;
40256;SDS011;25977;45.462;9.210;2024-01-27T01:45:59;73.20;;;39.83;;
40256;SDS011;25977;45.462;9.210;2024-01-27T01:48:25;80.93;;;41.20;;
40256;SDS011;25977;45.462;9.210;2024-01-27T01:50:51;78.03;;;44.22;;
40256;SDS011;25977;45.462;9.210;2024-01-27T01:53:17;76.53;;;39.90;;
40256;SDS011;25977;45.462;9.210;2024-01-27T01:55:43;69.32;;;41.22;;
40256;SDS011;25977;45.462;9.210;2024-01-27T01:58:09;83.65;;;43.75;;
40256;SDS011;25977;45.462;9.210;2024-01-27T02:00:35;74.40;;;41.72;;
40256;SDS011;25977;45.462;9.210;2024-01-27T02:03:00;73.97;;;41.95;;
40256;SDS011;25977;45.462;9.210;2024-01-27T02:05:26;68.15;;;39.40;;
40256;SDS011;25977;45.462;9.210;2024-01-27T02:07:52;72.85;;;39.33;;
40256;SDS011;25977;45.462;9.210;2024-01-27T02:10:21;73.47;;;41.17;;
40256;SDS011;25977;45.462;9.210;2024-01-27T02:12:47;70.63;;;39.92;;
40256;SDS011;25977;45.462;9.210;2024-01-27T02:15:13;73.20;;;40.40;;
40256;SDS011;25977;45.462;9.210;2024-01-27T02:17:39;66.88;;;40.33;;
40256;SDS011;25977;45.462;9.210;2024-01-27T02:20:08;66.57;;;39.00;;
40256;SDS011;25977;45.462;9.210;2024-01-27T02:22:34;63.65;;;37.53;;
40256;SDS011;25977;45.462;9.210;2024-01-27T02:25:01;64.68;;;36.22;;
40256;SDS011;25977;45.462;9.210;2024-01-27T02:27:27;59.45;;;35.63;;
40256;SDS011;25977;45.462;9.210;2024-01-27T02:29:53;57.78;;;35.17;;
40256;SDS011;25977;45.462;9.210;2024-01-27T02:32:18;58.00;;;36.30;;
40256;SDS011;25977;45.462;9.210;2024-01-27T02:34:44;60.70;;;33.85;;
40256;SDS011;25977;45.462;9.210;2024-01-27T02:37:09;58.45;;;33.92;;
40256;SDS011;25977;45.462;9.210;2024-01-27T02:39:35;55.10;;;32.03;;
40256;SDS011;25977;45.462;9.210;2024-01-27T02:42:01;54.17;;;33.17;;
40256;SDS011;25977;45.462;9.210;2024-01-27T02:44:27;54.95;;;33.17;;
40256;SDS011;25977;45.462;9.210;2024-01-27T02:46:53;57.10;;;33.80;;
40256;SDS011;25977;45.462;9.210;2024-01-27T02:49:18;60.45;;;35.03;;
40256;SDS011;25977;45.462;9.210;2024-01-27T02:51:44;57.75;;;34.92;;
40256;SDS011;25977;45.462;9.210;2024-01-27T02:54:10;52.25;;;31.98;;
40256;SDS011;25977;45.462;9.210;2024-01-27T02:56:35;56.47;;;32.95;;
40256;SDS011;25977;45.462;9.210;2024-01-27T02:59:01;57.67;;;34.22;;
40256;SDS011;25977;45.462;9.210;2024-01-27T03:01:27;54.03;;;32.88;;
40256;SDS011;25977;45.462;9.210;2024-01-27T03:03:52;53.22;;;31.67;;
40256;SDS011;25977;45.462;9.210;2024-01-27T03:06:18;58.88;;;33.22;;
40256;SDS011;25977;45.462;9.210;2024-01-27T03:08:44;57.88;;;32.35;;
40256;SDS011;25977;45.462;9.210;2024-01-27T03:11:09;58.58;;;34.70;;
40256;SDS011;25977;45.462;9.210;2024-01-27T03:13:35;53.72;;;31.98;;
40256;SDS011;25977;45.462;9.210;2024-01-27T03:16:01;52.72;;;31.27;;
40256;SDS011;25977;45.462;9.210;2024-01-27T03:18:27;51.38;;;32.00;;
40256;SDS011;25977;45.462;9.210;2024-01-27T03:20:53;48.00;;;29.27;;
40256;SDS011;25977;45.462;9.210;2024-01-27T03:23:18;53.05;;;31.92;;
40256;SDS011;25977;45.462;9.210;2024-01-27T03:25:44;51.15;;;30.33;;
40256;SDS011;25977;45.462;9.210;2024-01-27T03:28:10;53.00;;;31.33;;
40256;SDS011;25977;45.462;9.210;2024-01-27T03:30:36;54.75;;;31.95;;
40256;SDS011;25977;45.462;9.210;2024-01-27T03:33:02;56.60;;;31.38;;
40256;SDS011;25977;45.462;9.210;2024-01-27T03:35:28;50.22;;;32.03;;
40256;SDS011;25977;45.462;9.210;2024-01-27T03:37:54;58.90;;;32.10;;
40256;SDS011;25977;45.462;9.210;2024-01-27T03:40:19;50.20;;;30.58;;
40256;SDS011;25977;45.462;9.210;2024-01-27T03:42:45;51.90;;;31.10;;
40256;SDS011;25977;45.462;9.210;2024-01-27T03:45:11;49.05;;;31.15;;
40256;SDS011;25977;45.462;9.210;2024-01-27T03:47:36;51.45;;;30.60;;
40256;SDS011;25977;45.462;9.210;2024-01-27T03:50:02;52.08;;;32.17;;
40256;SDS011;25977;45.462;9.210;2024-01-27T03:52:28;54.05;;;30.10;;
40256;SDS011;25977;45.462;9.210;2024-01-27T03:54:53;50.80;;;29.52;;
40256;SDS011;25977;45.462;9.210;2024-01-27T03:57:19;53.80;;;29.75;;
40256;SDS011;25977;45.462;9.210;2024-01-27T03:59:45;49.42;;;30.02;;
40256;SDS011;25977;45.462;9.210;2024-01-27T04:02:10;56.85;;;31.10;;
40256;SDS011;25977;45.462;9.210;2024-01-27T04:04:36;45.70;;;28.23;;
40256;SDS011;25977;45.462;9.210;2024-01-27T04:07:01;47.88;;;28.08;;
40256;SDS011;25977;45.462;9.210;2024-01-27T04:09:27;56.53;;;31.42;;
40256;SDS011;25977;45.462;9.210;2024-01-27T04:11:53;54.67;;;29.80;;
40256;SDS011;25977;45.462;9.210;2024-01-27T04:14:18;53.67;;;29.55;;
40256;SDS011;25977;45.462;9.210;2024-01-27T04:16:44;47.13;;;29.50;;
40256;SDS011;25977;45.462;9.210;2024-01-27T04:19:10;50.28;;;29.48;;
40256;SDS011;25977;45.462;9.210;2024-01-27T04:21:35;54.25;;;30.92;;
40256;SDS011;25977;45.462;9.210;2024-01-27T04:24:01;44.55;;;27.52;;
40256;SDS011;25977;45.462;9.210;2024-01-27T04:26:27;49.00;;;30.80;;
40256;SDS011;25977;45.462;9.210;2024-01-27T04:28:53;55.92;;;33.47;;
40256;SDS011;25977;45.462;9.210;2024-01-27T04:31:18;49.20;;;28.67;;
40256;SDS011;25977;45.462;9.210;2024-01-27T04:33:44;52.65;;;29.98;;
40256;SDS011;25977;45.462;9.210;2024-01-27T04:36:10;46.85;;;28.88;;
40256;SDS011;25977;45.462;9.210;2024-01-27T04:38:36;57.03;;;32.30;;
40256;SDS011;25977;45.462;9.210;2024-01-27T04:41:01;53.72;;;29.67;;
40256;SDS011;25977;45.462;9.210;2024-01-27T04:43:28;57.15;;;30.90;;
40256;SDS011;25977;45.462;9.210;2024-01-27T04:45:54;53.88;;;30.73;;
40256;SDS011;25977;45.462;9.210;2024-01-27T04:48:19;54.13;;;31.48;;
40256;SDS011;25977;45.462;9.210;2024-01-27T04:50:45;61.60;;;29.55;;
40256;SDS011;25977;45.462;9.210;2024-01-27T04:53:11;61.55;;;32.17;;
40256;SDS011;25977;45.462;9.210;2024-01-27T04:55:37;56.90;;;31.63;;
40256;SDS011;25977;45.462;9.210;2024-01-27T04:58:03;61.05;;;31.45;;
40256;SDS011;25977;45.462;9.210;2024-01-27T05:00:29;56.15;;;32.13;;
40256;SDS011;25977;45.462;9.210;2024-01-27T05:02:55;64.18;;;32.90;;
40256;SDS011;25977;45.462;9.210;2024-01-27T05:05:22;58.03;;;30.38;;
40256;SDS011;25977;45.462;9.210;2024-01-27T05:07:48;62.85;;;33.42;;
40256;SDS011;25977;45.462;9.210;2024-01-27T05:10:14;65.88;;;33.72;;
40256;SDS011;25977;45.462;9.210;2024-01-27T05:12:41;61.15;;;32.38;;
40256;SDS011;25977;45.462;9.210;2024-01-27T05:15:06;67.82;;;34.70;;
40256;SDS011;25977;45.462;9.210;2024-01-27T05:17:34;63.05;;;32.65;;
40256;SDS011;25977;45.462;9.210;2024-01-27T05:19:59;63.55;;;32.58;;
40256;SDS011;25977;45.462;9.210;2024-01-27T05:22:25;62.97;;;32.05;;
40256;SDS011;25977;45.462;9.210;2024-01-27T05:24:51;74.82;;;33.47;;
40256;SDS011;25977;45.462;9.210;2024-01-27T05:27:17;63.70;;;31.27;;
40256;SDS011;25977;45.462;9.210;2024-01-27T05:29:42;69.53;;;34.33;;
40256;SDS011;25977;45.462;9.210;2024-01-27T05:32:08;65.70;;;34.20;;
40256;SDS011;25977;45.462;9.210;2024-01-27T05:34:34;65.63;;;33.13;;
40256;SDS011;25977;45.462;9.210;2024-01-27T05:36:59;61.92;;;33.65;;
40256;SDS011;25977;45.462;9.210;2024-01-27T05:39:25;61.15;;;34.47;;
40256;SDS011;25977;45.462;9.210;2024-01-27T05:41:51;65.00;;;36.03;;
40256;SDS011;25977;45.462;9.210;2024-01-27T05:44:16;63.42;;;33.15;;
40256;SDS011;25977;45.462;9.210;2024-01-27T05:46:42;65.72;;;33.45;;
40256;SDS011;25977;45.462;9.210;2024-01-27T05:49:07;67.45;;;35.80;;
40256;SDS011;25977;45.462;9.210;2024-01-27T05:51:33;67.35;;;33.65;;
40256;SDS011;25977;45.462;9.210;2024-01-27T05:53:59;71.78;;;37.33;;
40256;SDS011;25977;45.462;9.210;2024-01-27T05:56:24;65.15;;;35.00;;
40256;SDS011;25977;45.462;9.210;2024-01-27T05:58:50;70.25;;;35.92;;
40256;SDS011;25977;45.462;9.210;2024-01-27T06:01:19;60.53;;;33.40;;
40256;SDS011;25977;45.462;9.210;2024-01-27T06:03:45;66.78;;;35.83;;
40256;SDS011;25977;45.462;9.210;2024-01-27T06:06:11;69.35;;;32.10;;
40256;SDS011;25977;45.462;9.210;2024-01-27T06:08:36;63.20;;;33.65;;
40256;SDS011;25977;45.462;9.210;2024-01-27T06:11:02;73.72;;;37.03;;
40256;SDS011;25977;45.462;9.210;2024-01-27T06:13:31;73.72;;;38.53;;
40256;SDS011;25977;45.462;9.210;2024-01-27T06:15:58;68.10;;;35.22;;
40256;SDS011;25977;45.462;9.210;2024-01-27T06:18:24;64.70;;;34.85;;
40256;SDS011;25977;45.462;9.210;2024-01-27T06:20:49;67.20;;;35.72;;
40256;SDS011;25977;45.462;9.210;2024-01-27T06:23:15;69.93;;;36.33;;
40256;SDS011;25977;45.462;9.210;2024-01-27T06:25:41;66.68;;;35.75;;
40256;SDS011;25977;45.462;9.210;2024-01-27T06:28:07;67.00;;;37.30;;
40256;SDS011;25977;45.462;9.210;2024-01-27T06:30:33;65.80;;;35.58;;
40256;SDS011;25977;45.462;9.210;2024-01-27T06:32:59;68.20;;;35.72;;
40256;SDS011;25977;45.462;9.210;2024-01-27T06:35:24;65.40;;;36.83;;
40256;SDS011;25977;45.462;9.210;2024-01-27T06:37:50;67.03;;;35.85;;
40256;SDS011;25977;45.462;9.210;2024-01-27T06:40:15;67.80;;;34.75;;
40256;SDS011;25977;45.462;9.210;2024-01-27T06:42:41;66.07;;;35.38;;
40256;SDS011;25977;45.462;9.210;2024-01-27T06:45:07;69.32;;;34.33;;
40256;SDS011;25977;45.462;9.210;2024-01-27T06:47:33;64.97;;;36.20;;
40256;SDS011;25977;45.462;9.210;2024-01-27T06:49:58;63.13;;;34.92;;
40256;SDS011;25977;45.462;9.210;2024-01-27T06:52:25;60.75;;;33.40;;
40256;SDS011;25977;45.462;9.210;2024-01-27T06:54:50;63.05;;;32.40;;
40256;SDS011;25977;45.462;9.210;2024-01-27T06:57:19;69.00;;;34.28;;
40256;SDS011;25977;45.462;9.210;2024-01-27T06:59:46;65.72;;;32.90;;
40256;SDS011;25977;45.462;9.210;2024-01-27T07:02:17;64.65;;;33.70;;
40256;SDS011;25977;45.462;9.210;2024-01-27T07:04:43;65.28;;;35.08;;
40256;SDS011;25977;45.462;9.210;2024-01-27T07:07:09;60.70;;;33.22;;
40256;SDS011;25977;45.462;9.210;2024-01-27T07:09:35;57.72;;;33.78;;
40256;SDS011;25977;45.462;9.210;2024-01-27T07:12:00;56.70;;;31.27;;
40256;SDS011;25977;45.462;9.210;2024-01-27T07:14:26;65.00;;;31.90;;
40256;SDS011;25977;45.462;9.210;2024-01-27T07:16:52;61.85;;;32.92;;
40256;SDS011;25977;45.462;9.210;2024-01-27T07:19:17;69.72;;;34.40;;
40256;SDS011;25977;45.462;9.210;2024-01-27T07:21:43;56.88;;;32.08;;
40256;SDS011;25977;45.462;9.210;2024-01-27T07:24:09;67.15;;;34.75;;
40256;SDS011;25977;45.462;9.210;2024-01-27T07:26:34;62.17;;;33.83;;
40256;SDS011;25977;45.462;9.210;2024-01-27T07:29:00;64.07;;;33.53;;
40256;SDS011;25977;45.462;9.210;2024-01-27T07:31:26;66.72;;;33.25;;
40256;SDS011;25977;45.462;9.210;2024-01-27T07:33:52;65.25;;;35.42;;
40256;SDS011;25977;45.462;9.210;2024-01-27T07:36:18;67.75;;;35.45;;
40256;SDS011;25977;45.462;9.210;2024-01-27T07:38:44;62.90;;;34.05;;
40256;SDS011;25977;45.462;9.210;2024-01-27T07:41:09;65.15;;;35.47;;
40256;SDS011;25977;45.462;9.210;2024-01-27T07:43:35;68.03;;;36.53;;
40256;SDS011;25977;45.462;9.210;2024-01-27T07:46:00;63.05;;;32.15;;
40256;SDS011;25977;45.462;9.210;2024-01-27T07:48:26;74.30;;;35.42;;
40256;SDS011;25977;45.462;9.210;2024-01-27T07:50:52;62.47;;;32.17;;
40256;SDS011;25977;45.462;9.210;2024-01-27T07:53:17;69.40;;;34.15;;
40256;SDS011;25977;45.462;9.210;2024-01-27T07:55:43;67.32;;;32.45;;
40256;SDS011;25977;45.462;9.210;2024-01-27T07:58:09;61.63;;;32.25;;
40256;SDS011;25977;45.462;9.210;2024-01-27T08:00:34;60.90;;;32.33;;
40256;SDS011;25977;45.462;9.210;2024-01-27T08:03:00;62.80;;;31.75;;
40256;SDS011;25977;45.462;9.210;2024-01-27T08:05:26;60.35;;;29.17;;
40256;SDS011;25977;45.462;9.210;2024-01-27T08:07:52;63.03;;;31.75;;
40256;SDS011;25977;45.462;9.210;2024-01-27T08:10:18;53.90;;;30.75;;
40256;SDS011;25977;45.462;9.210;2024-01-27T08:12:44;61.80;;;31.85;;
40256;SDS011;25977;45.462;9.210;2024-01-27T08:15:09;63.47;;;31.58;;
40256;SDS011;25977;45.462;9.210;2024-01-27T08:17:37;60.42;;;29.95;;
40256;SDS011;25977;45.462;9.210;2024-01-27T08:20:02;57.20;;;29.85;;
40256;SDS011;25977;45.462;9.210;2024-01-27T08:22:29;61.03;;;30.33;;
40256;SDS011;25977;45.462;9.210;2024-01-27T08:24:54;56.88;;;30.60;;
40256;SDS011;25977;45.462;9.210;2024-01-27T08:27:20;53.92;;;29.05;;
40256;SDS011;25977;45.462;9.210;2024-01-27T08:29:46;56.88;;;29.55;;
40256;SDS011;25977;45.462;9.210;2024-01-27T08:32:11;56.25;;;29.75;;
40256;SDS011;25977;45.462;9.210;2024-01-27T08:34:37;57.78;;;28.02;;
40256;SDS011;25977;45.462;9.210;2024-01-27T08:37:13;53.15;;;28.35;;
40256;SDS011;25977;45.462;9.210;2024-01-27T08:39:45;50.95;;;27.50;;
40256;SDS011;25977;45.462;9.210;2024-01-27T08:42:11;50.80;;;28.20;;
40256;SDS011;25977;45.462;9.210;2024-01-27T08:44:37;53.00;;;27.15;;
40256;SDS011;25977;45.462;9.210;2024-01-27T08:47:04;57.45;;;30.83;;
40256;SDS011;25977;45.462;9.210;2024-01-27T08:49:30;55.30;;;30.05;;
40256;SDS011;25977;45.462;9.210;2024-01-27T08:51:56;53.55;;;30.75;;
40256;SDS011;25977;45.462;9.210;2024-01-27T08:54:21;53.38;;;30.58;;
40256;SDS011;25977;45.462;9.210;2024-01-27T08:56:47;52.10;;;29.02;;
40256;SDS011;25977;45.462;9.210;2024-01-27T08:59:13;51.80;;;30.20;;
40256;SDS011;25977;45.462;9.210;2024-01-27T09:01:39;61.33;;;31.63;;
40256;SDS011;25977;45.462;9.210;2024-01-27T09:04:04;56.15;;;29.13;;
40256;SDS011;25977;45.462;9.210;2024-01-27T09:06:30;55.28;;;29.92;;
40256;SDS011;25977;45.462;9.210;2024-01-27T09:08:56;58.03;;;29.85;;
40256;SDS011;25977;45.462;9.210;2024-01-27T09:11:22;59.53;;;29.58;;
40256;SDS011;25977;45.462;9.210;2024-01-27T09:13:48;59.63;;;29.35;;
40256;SDS011;25977;45.462;9.210;2024-01-27T09:16:17;57.13;;;28.58;;
40256;SDS011;25977;45.462;9.210;2024-01-27T09:18:43;52.58;;;28.23;;
40256;SDS011;25977;45.462;9.210;2024-01-27T09:21:09;54.08;;;29.80;;
40256;SDS011;25977;45.462;9.210;2024-01-27T09:23:34;58.58;;;29.20;;
40256;SDS011;25977;45.462;9.210;2024-01-27T09:26:00;55.78;;;29.42;;
40256;SDS011;25977;45.462;9.210;2024-01-27T09:28:26;53.50;;;29.55;;
40256;SDS011;25977;45.462;9.210;2024-01-27T09:30:52;60.70;;;29.08;;
40256;SDS011;25977;45.462;9.210;2024-01-27T09:33:17;58.40;;;30.42;;
40256;SDS011;25977;45.462;9.210;2024-01-27T09:35:45;51.88;;;30.50;;
40256;SDS011;25977;45.462;9.210;2024-01-27T09:38:11;64.57;;;32.17;;
40256;SDS011;25977;45.462;9.210;2024-01-27T09:40:43;64.13;;;32.33;;
40256;SDS011;25977;45.462;9.210;2024-01-27T09:43:10;68.63;;;34.53;;
40256;SDS011;25977;45.462;9.210;2024-01-27T09:45:40;59.22;;;30.30;;
40256;SDS011;25977;45.462;9.210;2024-01-27T09:48:06;73.18;;;35.08;;
40256;SDS011;25977;45.462;9.210;2024-01-27T09:50:35;59.22;;;31.27;;
40256;SDS011;25977;45.462;9.210;2024-01-27T09:53:01;65.20;;;32.17;;
40256;SDS011;25977;45.462;9.210;2024-01-27T09:55:29;57.75;;;35.67;;
40256;SDS011;25977;45.462;9.210;2024-01-27T09:57:55;58.60;;;31.27;;
40256;SDS011;25977;45.462;9.210;2024-01-27T10:00:21;55.50;;;30.00;;
40256;SDS011;25977;45.462;9.210;2024-01-27T10:02:47;61.10;;;34.08;;
40256;SDS011;25977;45.462;9.210;2024-01-27T10:05:13;61.95;;;33.67;;
40256;SDS011;25977;45.462;9.210;2024-01-27T10:07:40;63.22;;;32.13;;
40256;SDS011;25977;45.462;9.210;2024-01-27T10:10:06;60.33;;;33.47;;
40256;SDS011;25977;45.462;9.210;2024-01-27T10:12:32;57.10;;;32.22;;
40256;SDS011;25977;45.462;9.210;2024-01-27T10:14:59;56.63;;;32.75;;
40256;SDS011;25977;45.462;9.210;2024-01-27T10:17:25;58.03;;;31.85;;
40256;SDS011;25977;45.462;9.210;2024-01-27T10:20:01;59.30;;;32.70;;
40256;SDS011;25977;45.462;9.210;2024-01-27T10:22:29;60.70;;;34.53;;
40256;SDS011;25977;45.462;9.210;2024-01-27T10:25:02;59.25;;;31.77;;
40256;SDS011;25977;45.462;9.210;2024-01-27T10:27:28;59.90;;;31.38;;
40256;SDS011;25977;45.462;9.210;2024-01-27T10:29:54;55.90;;;31.73;;
40256;SDS011;25977;45.462;9.210;2024-01-27T10:32:23;70.25;;;31.40;;
40256;SDS011;25977;45.462;9.210;2024-01-27T10:35:07;72.60;;;33.20;;
40256;SDS011;25977;45.462;9.210;2024-01-27T10:37:34;58.45;;;32.65;;
40256;SDS011;25977;45.462;9.210;2024-01-27T10:40:00;62.47;;;33.72;;
40256;SDS011;25977;45.462;9.210;2024-01-27T10:42:36;56.50;;;32.35;;
40256;SDS011;25977;45.462;9.210;2024-01-27T10:45:03;55.83;;;31.52;;
40256;SDS011;25977;45.462;9.210;2024-01-27T10:47:30;55.90;;;30.95;;
40256;SDS011;25977;45.462;9.210;2024-01-27T10:49:58;55.15;;;32.17;;
40256;SDS011;25977;45.462;9.210;2024-01-27T10:52:25;57.42;;;32.63;;
40256;SDS011;25977;45.462;9.210;2024-01-27T10:55:00;52.55;;;31.08;;
40256;SDS011;25977;45.462;9.210;2024-01-27T10:57:31;52.60;;;29.67;;
40256;SDS011;25977;45.462;9.210;2024-01-27T10:59:58;54.05;;;29.42;;
40256;SDS011;25977;45.462;9.210;2024-01-27T11:02:30;48.75;;;28.63;;
40256;SDS011;25977;45.462;9.210;2024-01-27T11:04:58;50.95;;;28.63;;
40256;SDS011;25977;45.462;9.210;2024-01-27T11:07:25;49.72;;;29.55;;
40256;SDS011;25977;45.462;9.210;2024-01-27T11:09:52;45.28;;;27.35;;
40256;SDS011;25977;45.462;9.210;2024-01-27T11:12:21;46.70;;;27.23;;
40256;SDS011;25977;45.462;9.210;2024-01-27T11:14:48;48.15;;;28.80;;
40256;SDS011;25977;45.462;9.210;2024-01-27T11:17:15;41.15;;;26.38;;
40256;SDS011;25977;45.462;9.210;2024-01-27T11:19:41;41.42;;;26.17;;
40256;SDS011;25977;45.462;9.210;2024-01-27T11:22:16;44.20;;;26.67;;
40256;SDS011;25977;45.462;9.210;2024-01-27T11:25:37;43.30;;;26.88;;
40256;SDS011;25977;45.462;9.210;2024-01-27T11:27:40;45.38;;;27.35;;
40256;SDS011;25977;45.462;9.210;2024-01-27T11:30:12;50.47;;;27.40;;
40256;SDS011;25977;45.462;9.210;2024-01-27T11:33:00;44.53;;;26.48;;
40256;SDS011;25977;45.462;9.210;2024-01-27T11:35:26;48.00;;;27.67;;
40256;SDS011;25977;45.462;9.210;2024-01-27T11:37:54;48.63;;;26.90;;
40256;SDS011;25977;45.462;9.210;2024-01-27T11:40:21;46.50;;;28.17;;
40256;SDS011;25977;45.462;9.210;2024-01-27T11:42:56;45.50;;;26.65;;
40256;SDS011;25977;45.462;9.210;2024-01-27T11:45:25;44.28;;;26.88;;
40256;SDS011;25977;45.462;9.210;2024-01-27T11:47:52;43.00;;;25.55;;
40256;SDS011;25977;45.462;9.210;2024-01-27T11:50:19;41.15;;;25.65;;
40256;SDS011;25977;45.462;9.210;2024-01-27T11:52:46;48.00;;;27.27;;
40256;SDS011;25977;45.462;9.210;2024-01-27T11:55:11;40.17;;;26.58;;
40256;SDS011;25977;45.462;9.210;2024-01-27T11:57:37;45.42;;;27.85;;
40256;SDS011;25977;45.462;9.210;2024-01-27T12:00:03;41.28;;;26.83;;
40256;SDS011;25977;45.462;9.210;2024-01-27T12:02:31;41.60;;;25.80;;
40256;SDS011;25977;45.462;9.210;2024-01-27T12:04:57;47.00;;;27.98;;
40256;SDS011;25977;45.462;9.210;2024-01-27T12:07:23;49.08;;;28.13;;
40256;SDS011;25977;45.462;9.210;2024-01-27T12:09:50;46.47;;;28.70;;
40256;SDS011;25977;45.462;9.210;2024-01-27T12:12:16;47.95;;;27.48;;
40256;SDS011;25977;45.462;9.210;2024-01-27T12:14:49;47.45;;;28.83;;
40256;SDS011;25977;45.462;9.210;2024-01-27T12:17:16;49.50;;;27.38;;
40256;SDS011;25977;45.462;9.210;2024-01-27T12:19:45;45.85;;;28.27;;
40256;SDS011;25977;45.462;9.210;2024-01-27T12:22:28;45.28;;;28.67;;
40256;SDS011;25977;45.462;9.210;2024-01-27T12:24:55;53.10;;;29.00;;
40256;SDS011;25977;45.462;9.210;2024-01-27T12:27:32;44.92;;;28.02;;
40256;SDS011;25977;45.462;9.210;2024-01-27T12:29:59;43.05;;;26.08;;
40256;SDS011;25977;45.462;9.210;2024-01-27T12:32:26;46.67;;;28.02;;
40256;SDS011;25977;45.462;9.210;2024-01-27T12:34:52;44.67;;;29.10;;
40256;SDS011;25977;45.462;9.210;2024-01-27T12:37:17;42.22;;;25.48;;
40256;SDS011;25977;45.462;9.210;2024-01-27T12:39:46;49.28;;;29.60;;
40256;SDS011;25977;45.462;9.210;2024-01-27T12:42:12;42.47;;;27.45;;
40256;SDS011;25977;45.462;9.210;2024-01-27T12:44:38;47.58;;;27.80;;
40256;SDS011;25977;45.462;9.210;2024-01-27T12:47:05;44.58;;;27.50;;
40256;SDS011;25977;45.462;9.210;2024-01-27T12:49:31;45.70;;;27.85;;
40256;SDS011;25977;45.462;9.210;2024-01-27T12:51:56;43.63;;;25.17;;
40256;SDS011;25977;45.462;9.210;2024-01-27T12:54:22;46.10;;;26.63;;
40256;SDS011;25977;45.462;9.210;2024-01-27T12:56:48;43.97;;;26.77;;
40256;SDS011;25977;45.462;9.210;2024-01-27T12:59:14;44.25;;;26.80;;
40256;SDS011;25977;45.462;9.210;2024-01-27T13:01:40;49.92;;;28.35;;
40256;SDS011;25977;45.462;9.210;2024-01-27T13:04:06;44.75;;;27.83;;
40256;SDS011;25977;45.462;9.210;2024-01-27T13:06:32;44.63;;;26.15;;
40256;SDS011;25977;45.462;9.210;2024-01-27T13:08:57;45.85;;;27.63;;
40256;SDS011;25977;45.462;9.210;2024-01-27T13:11:23;41.83;;;26.92;;
40256;SDS011;25977;45.462;9.210;2024-01-27T13:13:49;44.17;;;26.33;;
40256;SDS011;25977;45.462;9.210;2024-01-27T13:16:15;44.50;;;28.15;;
40256;SDS011;25977;45.462;9.210;2024-01-27T13:18:41;42.63;;;26.73;;
40256;SDS011;25977;45.462;9.210;2024-01-27T13:21:07;51.05;;;26.83;;
40256;SDS011;25977;45.462;9.210;2024-01-27T13:23:33;46.20;;;27.15;;
40256;SDS011;25977;45.462;9.210;2024-01-27T13:25:59;46.28;;;26.25;;
40256;SDS011;25977;45.462;9.210;2024-01-27T13:28:25;46.58;;;28.88;;
40256;SDS011;25977;45.462;9.210;2024-01-27T13:30:51;46.40;;;28.10;;
40256;SDS011;25977;45.462;9.210;2024-01-27T13:33:17;44.10;;;27.35;;
40256;SDS011;25977;45.462;9.210;2024-01-27T13:35:43;47.03;;;27.45;;
40256;SDS011;25977;45.462;9.210;2024-01-27T13:38:14;50.15;;;27.00;;
40256;SDS011;25977;45.462;9.210;2024-01-27T13:40:41;45.42;;;26.67;;
40256;SDS011;25977;45.462;9.210;2024-01-27T13:43:07;46.83;;;27.02;;
40256;SDS011;25977;45.462;9.210;2024-01-27T13:45:33;43.78;;;26.50;;
40256;SDS011;25977;45.462;9.210;2024-01-27T13:47:59;50.45;;;27.48;;
40256;SDS011;25977;45.462;9.210;2024-01-27T13:50:25;45.97;;;26.75;;
40256;SDS011;25977;45.462;9.210;2024-01-27T13:52:52;46.90;;;26.77;;
40256;SDS011;25977;45.462;9.210;2024-01-27T13:55:18;41.67;;;25.77;;
40256;SDS011;25977;45.462;9.210;2024-01-27T13:57:44;53.65;;;28.27;;
40256;SDS011;25977;45.462;9.210;2024-01-27T14:00:10;53.22;;;27.13;;
40256;SDS011;25977;45.462;9.210;2024-01-27T14:02:36;46.17;;;27.02;;
40256;SDS011;25977;45.462;9.210;2024-01-27T14:05:02;48.83;;;27.85;;
40256;SDS011;25977;45.462;9.210;2024-01-27T14:07:29;45.53;;;27.20;;
40256;SDS011;25977;45.462;9.210;2024-01-27T14:09:58;52.25;;;26.23;;
40256;SDS011;25977;45.462;9.210;2024-01-27T14:12:25;51.25;;;28.20;;
40256;SDS011;25977;45.462;9.210;2024-01-27T14:14:50;45.03;;;27.33;;
40256;SDS011;25977;45.462;9.210;2024-01-27T14:17:16;41.47;;;26.60;;